createdAt,value
2023-05-19T01:30:57.841Z,82
2023-05-19T01:40:58.650Z,82
2023-05-19T01:50:59.246Z,82
2023-05-19T02:00:59.940Z,82
2023-05-19T02:21:00.964Z,84
2023-05-19T02:31:01.655Z,85
2023-05-19T02:41:02.231Z,85
2023-05-19T02:51:02.938Z,86
2023-05-19T06:01:14.913Z,78
2023-05-19T06:11:16.026Z,77
2023-05-19T06:21:16.381Z,76
2023-05-19T06:31:17.239Z,75
2023-05-19T06:41:17.506Z,73
2023-05-19T06:51:18.104Z,71
2023-05-19T07:01:19.016Z,69
2023-05-19T07:11:19.847Z,68
2023-05-19T07:21:20.192Z,67
2023-05-19T07:31:20.877Z,67
2023-05-19T07:51:21.523Z,65
2023-05-19T08:01:22.103Z,63
2023-05-19T08:21:23.772Z,62
2023-05-19T08:31:24.795Z,62
2023-05-19T08:41:24.877Z,61
2023-05-19T08:51:25.220Z,60
2023-05-19T09:01:25.850Z,57
2023-05-19T09:11:26.639Z,57
2023-05-19T09:21:27.045Z,54
2023-05-19T09:31:27.658Z,52
2023-05-19T09:41:27.951Z,53
2023-05-19T09:51:28.346Z,53
2023-05-19T10:01:28.969Z,54
2023-05-19T10:21:31.166Z,53
2023-05-19T10:31:32.014Z,53
2023-05-19T10:41:32.478Z,51
2023-05-19T10:51:32.793Z,50
2023-05-19T11:01:32.996Z,49
2023-05-19T11:21:33.787Z,51
2023-05-19T11:31:34.693Z,49
2023-05-19T11:41:34.876Z,49
2023-05-19T11:51:35.755Z,47
2023-05-19T12:11:37.661Z,47
2023-05-19T12:31:39.505Z,47
2023-05-19T12:51:41.358Z,46
2023-05-19T13:01:42.415Z,47
2023-05-19T13:21:42.910Z,47
2023-05-19T13:31:44.017Z,48
2023-05-19T13:41:44.460Z,47
2023-05-19T14:01:45.787Z,48
2023-05-19T14:11:46.083Z,48
2023-05-19T14:21:46.617Z,47
2023-05-19T14:31:47.271Z,49
2023-05-19T14:41:47.545Z,48
2023-05-19T14:51:48.572Z,46
2023-05-19T15:01:48.877Z,45
2023-05-19T15:11:49.448Z,47
2023-05-19T15:21:50.546Z,46
2023-05-19T15:31:50.847Z,48
2023-05-19T15:41:51.509Z,48
2023-05-19T15:51:51.913Z,49
2023-05-19T16:11:52.689Z,48
2023-05-19T16:31:53.699Z,46
2023-05-19T16:41:53.934Z,46
2023-05-19T16:51:54.082Z,46
2023-05-19T17:01:55.198Z,47
2023-05-19T17:11:55.967Z,48
2023-05-19T17:21:56.765Z,48
2023-05-19T17:31:57.936Z,49
2023-05-19T17:41:58.814Z,48
2023-05-19T18:02:00.227Z,49
2023-05-19T18:22:01.241Z,50
2023-05-19T18:32:02.217Z,51
2023-05-19T18:42:02.684Z,51
2023-05-19T18:52:02.879Z,52
2023-05-19T19:22:04.994Z,55
2023-05-19T19:32:05.306Z,55
2023-05-19T19:42:06.285Z,56
2023-05-19T19:52:06.494Z,57
2023-05-19T20:02:06.831Z,58
2023-05-19T20:22:07.424Z,59
2023-05-19T20:32:08.473Z,60
2023-05-19T20:42:09.512Z,60
2023-05-19T20:52:10.161Z,61
2023-05-19T21:02:10.308Z,62
2023-05-19T21:12:11.122Z,62
2023-05-19T21:22:12.196Z,63
2023-05-19T21:42:13.659Z,64
2023-05-19T21:52:14.001Z,64
2023-05-19T22:02:14.355Z,64
2023-05-19T22:22:16.180Z,65
2023-05-19T22:42:17.318Z,65
2023-05-19T23:02:18.527Z,66
2023-05-19T23:12:18.791Z,66
2023-05-19T23:22:19.669Z,67
2023-05-19T23:42:21.120Z,69
2023-05-19T23:52:21.723Z,70
